Time;durP1;ratioP1;P1;durP2;ratioP2;P2;SDS_P1;SDS_P2;PMS_P1;PMS_P2;Temp;Humidity;BMP_temperature;BMP_pressure;BME280_temperature;BME280_humidity;BME280_pressure;Samples;Min_cycle;Max_cycle;Signal;HPM_P1;HPM_P2
2024/04/17 00:00:12;;;;;;;2.90;0.93;;;204.90;2252.80;;;;;;5519810;26;20389;-71
2024/04/17 00:02:38;;;;;;;1.42;0.88;;;205.00;2252.80;;;;;;5521490;25;20043;-70
2024/04/17 00:05:04;;;;;;;1.70;1.00;;;205.20;2252.80;;;;;;5515306;26;19994;-71
2024/04/17 00:07:30;;;;;;;1.65;1.13;;;205.20;2252.80;;;;;;5517750;26;20324;-74
2024/04/17 00:09:56;;;;;;;2.13;0.95;;;205.10;2252.80;;;;;;5525950;26;20046;-73
2024/04/17 00:12:22;;;;;;;0.93;0.85;;;205.10;2252.80;;;;;;5525852;26;20009;-72
2024/04/17 00:14:48;;;;;;;1.13;0.85;;;205.10;2252.80;;;;;;5511350;25;19994;-76
2024/04/17 00:17:13;;;;;;;0.95;0.63;;;204.80;2252.80;;;;;;5510512;26;20005;-72
2024/04/17 00:19:39;;;;;;;2.00;1.23;;;204.90;2252.80;;;;;;5500764;26;19997;-73
2024/04/17 00:22:05;;;;;;;2.47;0.88;;;205.10;2252.80;;;;;;5503728;26;20427;-76
2024/04/17 00:24:31;;;;;;;1.60;0.93;;;205.00;2252.80;;;;;;5516022;26;19994;-77
2024/04/17 00:26:57;;;;;;;1.50;0.88;;;204.80;2252.80;;;;;;5487725;26;19998;-71
2024/04/17 00:29:24;;;;;;;1.40;0.63;;;204.80;2252.80;;;;;;5520168;25;19994;-71
2024/04/17 00:31:50;;;;;;;1.08;0.80;;;204.90;2252.80;;;;;;5520370;25;20033;-71
2024/04/17 00:34:16;;;;;;;0.90;0.80;;;204.90;2252.80;;;;;;5503974;26;19994;-71
2024/04/17 00:36:41;;;;;;;1.55;0.98;;;204.90;2252.80;;;;;;5508233;26;20440;-73
2024/04/17 00:39:07;;;;;;;1.52;0.80;;;204.90;2252.80;;;;;;5512121;26;19993;-71
2024/04/17 00:41:33;;;;;;;1.30;0.80;;;204.90;2252.80;;;;;;5507848;25;20393;-70
2024/04/17 00:43:59;;;;;;;1.25;0.90;;;180.10;2252.80;;;;;;5511881;26;19990;-70
2024/04/17 00:46:25;;;;;;;0.60;0.55;;;204.80;2252.80;;;;;;5521313;25;20021;-71
2024/04/17 00:48:51;;;;;;;1.08;0.80;;;204.80;2252.80;;;;;;5512605;25;19998;-72
2024/04/17 00:51:17;;;;;;;0.73;0.57;;;179.90;2252.80;;;;;;5508054;26;20022;-71
2024/04/17 00:53:43;;;;;;;2.45;1.08;;;180.00;2252.80;;;;;;5518571;26;20435;-71
2024/04/17 00:56:09;;;;;;;0.98;0.70;;;204.80;2252.80;;;;;;5520488;26;19993;-73
2024/04/17 00:58:37;;;;;;;0.68;0.63;;;180.00;2252.80;;;;;;5519804;25;20001;-71
2024/04/17 01:01:03;;;;;;;0.60;0.60;;;180.10;2252.80;;;;;;5519856;26;19997;-71
2024/04/17 01:03:28;;;;;;;0.57;0.38;;;180.10;2252.80;;;;;;5519710;26;20005;-72
2024/04/17 01:05:54;;;;;;;0.90;0.77;;;180.00;2252.80;;;;;;5519882;25;19997;-74
2024/04/17 01:08:20;;;;;;;1.55;1.13;;;179.80;2252.80;;;;;;5519448;25;20009;-71
2024/04/17 01:10:46;;;;;;;18.73;17.08;;;179.80;2252.80;;;;;;5519902;25;20073;-72
2024/04/17 01:13:12;;;;;;;2.88;2.20;;;180.00;2252.80;;;;;;5519462;25;19998;-71
2024/04/17 01:15:37;;;;;;;1.30;0.95;;;180.00;2252.80;;;;;;5495282;25;19998;-72
2024/04/17 01:18:04;;;;;;;0.98;0.70;;;180.10;2252.80;;;;;;5519656;26;20022;-74
2024/04/17 01:20:30;;;;;;;2.25;0.90;;;180.10;2252.80;;;;;;5520035;25;20070;-71
2024/04/17 01:22:56;;;;;;;1.65;1.10;;;180.10;2252.80;;;;;;5519554;25;20001;-71
2024/04/17 01:25:22;;;;;;;1.65;0.90;;;180.00;2252.80;;;;;;5520877;25;19994;-71
2024/04/17 01:27:48;;;;;;;1.80;0.80;;;204.80;2252.80;;;;;;5518843;25;20005;-75
2024/04/17 01:30:14;;;;;;;1.35;0.90;;;204.90;2252.80;;;;;;5519694;26;20008;-71
2024/04/17 01:32:42;;;;;;;1.77;1.13;;;180.10;2252.80;;;;;;5519058;26;19994;-73
2024/04/17 01:35:07;;;;;;;1.50;1.00;;;204.90;2252.80;;;;;;5518389;25;19993;-71
2024/04/17 01:37:33;;;;;;;1.17;0.95;;;204.90;2252.80;;;;;;5519098;25;20038;-72
2024/04/17 01:39:59;;;;;;;1.80;1.02;;;205.00;2252.80;;;;;;5519082;26;19994;-72
2024/04/17 01:42:24;;;;;;;0.80;0.70;;;204.80;2252.80;;;;;;5519107;26;20069;-71
2024/04/17 01:44:50;;;;;;;1.38;0.93;;;204.80;2252.80;;;;;;5519694;25;19993;-74
2024/04/17 01:47:16;;;;;;;1.10;0.80;;;204.90;2252.80;;;;;;5518460;26;20108;-77
2024/04/17 01:49:41;;;;;;;0.75;0.73;;;204.90;2252.80;;;;;;5518694;25;20423;-76
2024/04/17 01:52:07;;;;;;;1.05;0.82;;;204.90;2252.80;;;;;;5522823;26;20491;-74
2024/04/17 01:54:33;;;;;;;1.45;1.13;;;204.90;2252.80;;;;;;5522508;26;20008;-75
2024/04/17 01:56:58;;;;;;;1.63;0.98;;;204.90;2252.80;;;;;;5522194;26;20001;-73
2024/04/17 01:59:24;;;;;;;1.95;1.23;;;204.80;2252.80;;;;;;5521027;26;20005;-72
2024/04/17 02:01:52;;;;;;;3.20;1.00;;;180.10;2252.80;;;;;;5523037;25;20069;-71
2024/04/17 02:04:18;;;;;;;1.73;1.13;;;180.10;2252.80;;;;;;5521744;25;20002;-72
2024/04/17 02:06:44;;;;;;;1.90;1.30;;;180.10;2252.80;;;;;;5523673;26;20019;-71
2024/04/17 02:09:09;;;;;;;1.75;1.15;;;204.80;2252.80;;;;;;5521408;25;20013;-72
2024/04/17 02:11:35;;;;;;;1.95;1.17;;;180.10;2252.80;;;;;;5523069;26;20008;-71
2024/04/17 02:14:00;;;;;;;2.05;1.20;;;180.10;2252.80;;;;;;5521370;26;20005;-75
2024/04/17 02:16:26;;;;;;;2.50;1.40;;;180.10;2252.80;;;;;;5522944;26;19997;-72
2024/04/17 02:18:52;;;;;;;35.85;28.60;;;180.10;2252.80;;;;;;5521880;26;20086;-75
2024/04/17 02:21:17;;;;;;;1.95;1.50;;;204.80;2252.80;;;;;;5522408;26;20001;-75
2024/04/17 02:23:47;;;;;;;3.17;2.78;;;204.80;2252.80;;;;;;5521700;25;20069;-71
2024/04/17 02:26:12;;;;;;;3.22;2.20;;;180.10;2252.80;;;;;;5522371;26;20059;-74
2024/04/17 02:28:38;;;;;;;2.05;1.65;;;180.00;2252.80;;;;;;5521091;25;20013;-71
2024/04/17 02:31:04;;;;;;;1.80;1.13;;;179.90;2252.80;;;;;;5523025;25;20009;-71
2024/04/17 02:33:30;;;;;;;2.40;1.55;;;179.90;2252.80;;;;;;5521658;26;20366;-71
2024/04/17 02:35:55;;;;;;;1.77;1.20;;;179.90;2252.80;;;;;;5523015;26;20586;-72
2024/04/17 02:38:21;;;;;;;1.90;1.30;;;179.90;2252.80;;;;;;5521449;26;20008;-71
2024/04/17 02:40:46;;;;;;;2.72;1.60;;;179.90;2252.80;;;;;;5522510;26;19999;-72
2024/04/17 02:43:12;;;;;;;2.33;1.48;;;179.80;2252.80;;;;;;5521695;26;20001;-75
2024/04/17 02:45:40;;;;;;;1.85;1.27;;;179.80;2252.80;;;;;;5522422;25;20046;-76
2024/04/17 02:48:06;;;;;;;2.17;1.30;;;179.80;2252.80;;;;;;5521305;26;20012;-76
2024/04/17 02:50:31;;;;;;;2.00;1.38;;;179.80;2252.80;;;;;;5522008;25;20331;-76
2024/04/17 02:52:58;;;;;;;3.03;1.25;;;179.90;2252.80;;;;;;5521363;26;20015;-75
2024/04/17 02:55:23;;;;;;;5.43;3.70;;;179.80;2252.80;;;;;;5522603;26;20029;-76
2024/04/17 02:57:49;;;;;;;2.13;1.48;;;179.70;2252.80;;;;;;5520955;25;20441;-76
2024/04/17 03:00:19;;;;;;;6.05;5.43;;;179.50;2252.80;;;;;;5522748;26;20384;-71
2024/04/17 03:02:44;;;;;;;3.65;3.05;;;179.50;2252.80;;;;;;5521420;25;19994;-71
2024/04/17 03:05:10;;;;;;;3.17;0.90;;;179.50;2252.80;;;;;;5519971;26;20013;-71
2024/04/17 03:07:35;;;;;;;5.32;1.90;;;179.60;2252.80;;;;;;5521169;25;20548;-72
2024/04/17 03:10:01;;;;;;;1.50;1.00;;;179.50;2252.80;;;;;;5521921;26;20446;-71
2024/04/17 03:12:27;;;;;;;2.17;1.00;;;179.50;2252.80;;;;;;5520641;25;19997;-72
2024/04/17 03:14:53;;;;;;;0.77;0.73;;;179.50;2252.80;;;;;;5521796;26;20091;-73
2024/04/17 03:17:18;;;;;;;1.38;0.90;;;179.40;2252.80;;;;;;5521185;26;19997;-72
2024/04/17 03:19:45;;;;;;;1.10;0.82;;;179.30;2252.80;;;;;;5522204;26;19997;-72
2024/04/17 03:22:11;;;;;;;1.15;0.80;;;179.30;2252.80;;;;;;5521075;26;19998;-71
2024/04/17 03:24:37;;;;;;;0.95;0.85;;;154.50;2252.80;;;;;;5521253;26;20073;-72
2024/04/17 03:27:03;;;;;;;1.50;1.08;;;179.20;2252.80;;;;;;5520539;26;20331;-71
2024/04/17 03:29:29;;;;;;;1.25;1.00;;;179.20;2252.80;;;;;;5521273;25;20475;-75
2024/04/17 03:31:55;;;;;;;1.08;0.75;;;154.50;2252.80;;;;;;5520898;25;20069;-75
2024/04/17 03:34:21;;;;;;;3.20;2.28;;;179.20;2252.80;;;;;;5520103;26;20037;-76
2024/04/17 03:36:46;;;;;;;2.08;1.40;;;179.20;2252.80;;;;;;5520564;25;20013;-74
2024/04/17 03:39:12;;;;;;;0.63;0.50;;;179.20;2252.80;;;;;;5521708;25;19998;-75
2024/04/17 03:41:38;;;;;;;0.95;0.68;;;179.20;2252.80;;;;;;5520476;25;19997;-76
2024/04/17 03:44:04;;;;;;;1.10;0.85;;;179.20;2252.80;;;;;;5521768;26;21088;-72
2024/04/17 03:46:30;;;;;;;0.73;0.50;;;179.30;2252.80;;;;;;5519896;26;20009;-71
2024/04/17 03:48:55;;;;;;;0.90;0.60;;;154.30;2252.80;;;;;;5521441;26;20432;-71
2024/04/17 03:51:21;;;;;;;0.70;0.45;;;154.30;2252.80;;;;;;5509056;26;20009;-73
2024/04/17 03:53:49;;;;;;;0.73;0.73;;;154.20;2252.80;;;;;;5508806;25;20001;-72
2024/04/17 03:56:14;;;;;;;0.85;0.80;;;154.10;2252.80;;;;;;5520613;25;20090;-72
2024/04/17 03:58:40;;;;;;;0.88;0.60;;;154.00;2252.80;;;;;;5521286;25;19997;-71
2024/04/17 04:01:06;;;;;;;2.72;0.70;;;154.30;2252.80;;;;;;5521317;25;20001;-71
2024/04/17 04:03:32;;;;;;;8.75;0.90;;;154.30;2252.80;;;;;;5521071;25;20005;-71
2024/04/17 04:05:58;;;;;;;0.68;0.50;;;154.20;2252.80;;;;;;5524576;25;20388;-78
2024/04/17 04:08:23;;;;;;;0.57;0.47;;;154.20;2252.80;;;;;;5525508;25;20069;-73
2024/04/17 04:10:49;;;;;;;1.30;0.90;;;154.10;2252.80;;;;;;5525133;26;20006;-74
2024/04/17 04:13:15;;;;;;;1.88;1.00;;;154.30;2252.80;;;;;;5523116;25;20002;-71
2024/04/17 04:15:41;;;;;;;0.85;0.60;;;154.30;2252.80;;;;;;5520814;26;19998;-72
2024/04/17 04:18:07;;;;;;;1.05;0.80;;;154.30;2252.80;;;;;;5521341;25;20013;-72
2024/04/17 04:20:32;;;;;;;0.60;0.60;;;154.10;2252.80;;;;;;5520257;25;20331;-71
2024/04/17 04:22:58;;;;;;;1.13;0.63;;;154.00;2252.80;;;;;;5500888;26;20333;-72
2024/04/17 04:25:24;;;;;;;0.98;0.68;;;154.00;2252.80;;;;;;5513437;25;20021;-71
2024/04/17 04:27:50;;;;;;;1.13;0.70;;;154.00;2252.80;;;;;;5520442;25;20001;-71
2024/04/17 04:30:16;;;;;;;0.55;0.47;;;153.90;2252.80;;;;;;5519514;26;20006;-71
2024/04/17 04:32:42;;;;;;;1.13;0.73;;;154.00;2252.80;;;;;;5521101;26;20001;-70
2024/04/17 04:35:07;;;;;;;0.80;0.63;;;154.10;2252.80;;;;;;5519816;26;20384;-71
2024/04/17 04:37:34;;;;;;;0.93;0.50;;;154.10;2252.80;;;;;;5520315;26;20333;-71
2024/04/17 04:40:00;;;;;;;1.77;0.82;;;154.10;2252.80;;;;;;5519561;25;20061;-70
2024/04/17 04:42:26;;;;;;;2.17;0.70;;;154.10;2252.80;;;;;;5519790;25;20451;-71
2024/04/17 04:44:52;;;;;;;1.25;0.80;;;154.00;2252.80;;;;;;5519921;25;20037;-71
2024/04/17 04:47:18;;;;;;;6.13;4.45;;;154.10;2252.80;;;;;;5520321;25;20005;-72
2024/04/17 04:49:45;;;;;;;1.33;1.20;;;154.10;2252.80;;;;;;5519578;25;20001;-71
2024/04/17 04:52:11;;;;;;;2.38;1.63;;;153.90;2252.80;;;;;;5520545;26;20001;-71
2024/04/17 04:54:37;;;;;;;1.70;1.08;;;153.90;2252.80;;;;;;5519239;25;20001;-72
2024/04/17 04:57:03;;;;;;;2.90;1.50;;;153.80;2252.80;;;;;;5520752;26;20004;-71
2024/04/17 04:59:29;;;;;;;2.97;1.20;;;153.90;2252.80;;;;;;5519053;25;20085;-71
2024/04/17 05:01:55;;;;;;;1.88;1.30;;;154.00;2252.80;;;;;;5520652;25;20009;-70
2024/04/17 05:04:20;;;;;;;1.42;0.90;;;154.00;2252.80;;;;;;5519180;25;19997;-71
2024/04/17 05:06:47;;;;;;;2.70;1.08;;;154.00;2252.80;;;;;;5520371;26;20013;-71
2024/04/17 05:09:13;;;;;;;1.15;1.00;;;154.00;2252.80;;;;;;5518949;25;20013;-71
2024/04/17 05:11:38;;;;;;;1.40;0.80;;;154.00;2252.80;;;;;;5519591;25;20437;-71
2024/04/17 05:14:04;;;;;;;1.65;0.85;;;154.00;2252.80;;;;;;5518801;25;20020;-71
2024/04/17 05:16:30;;;;;;;1.42;0.90;;;154.00;2252.80;;;;;;5520372;25;20001;-73
2024/04/17 05:18:56;;;;;;;1.42;0.80;;;154.20;2252.80;;;;;;5518410;26;20347;-71
2024/04/17 05:21:24;;;;;;;1.25;0.75;;;154.20;2252.80;;;;;;5520314;26;20013;-70
2024/04/17 05:23:51;;;;;;;0.93;0.82;;;154.30;2252.80;;;;;;5517775;26;20065;-71
2024/04/17 05:26:17;;;;;;;0.68;0.40;;;154.30;2252.80;;;;;;5518387;26;20006;-72
2024/04/17 05:28:42;;;;;;;1.23;0.50;;;154.00;2252.80;;;;;;5518995;25;19998;-74
2024/04/17 05:31:08;;;;;;;0.77;0.57;;;154.20;2252.80;;;;;;5519298;26;20427;-71
2024/04/17 05:33:34;;;;;;;0.32;0.32;;;154.20;2252.80;;;;;;5519093;25;20056;-71
2024/04/17 05:36:00;;;;;;;0.65;0.50;;;154.40;2252.80;;;;;;5519195;26;20004;-71
2024/04/17 05:38:26;;;;;;;1.10;0.70;;;154.50;2252.80;;;;;;5519301;25;20013;-69
2024/04/17 05:40:52;;;;;;;1.35;0.68;;;154.40;2252.80;;;;;;5519517;25;20005;-70
2024/04/17 05:43:17;;;;;;;2.15;1.08;;;154.40;2252.80;;;;;;5518601;26;20000;-72
2024/04/17 05:45:46;;;;;;;1.10;0.90;;;154.40;2252.80;;;;;;5519087;26;20008;-76
2024/04/17 05:48:12;;;;;;;6.03;3.60;;;154.30;2252.80;;;;;;5513531;25;19998;-76
2024/04/17 05:50:40;;;;;;;4.90;2.80;;;154.30;2252.80;;;;;;5500495;25;20017;-75
2024/04/17 05:53:05;;;;;;;10.20;5.63;;;154.40;2252.80;;;;;;5520150;26;19998;-74
2024/04/17 05:55:34;;;;;;;4.80;2.83;;;179.60;2252.80;;;;;;5518966;25;20011;-76
2024/04/17 05:58:00;;;;;;;4.75;3.60;;;154.30;2252.80;;;;;;5519074;26;20008;-76
2024/04/17 06:00:26;;;;;;;5.95;4.00;;;154.30;2252.80;;;;;;5519420;25;20585;-73
2024/04/17 06:02:51;;;;;;;8.90;4.75;;;154.30;2252.80;;;;;;5512563;26;20010;-73
2024/04/17 06:05:17;;;;;;;4.10;2.92;;;154.30;2252.80;;;;;;5502016;26;20001;-74
2024/04/17 06:07:43;;;;;;;4.30;2.40;;;154.50;2252.80;;;;;;5518801;26;20439;-73
2024/04/17 06:10:09;;;;;;;3.10;1.90;;;154.40;2252.80;;;;;;5518267;26;19998;-70
2024/04/17 06:12:35;;;;;;;3.30;1.60;;;154.40;2252.80;;;;;;5519085;25;20037;-74
2024/04/17 06:15:01;;;;;;;3.25;2.00;;;154.30;2252.80;;;;;;5518417;25;20029;-70
2024/04/17 06:17:27;;;;;;;2.50;1.58;;;154.10;2252.80;;;;;;5518869;25;20046;-72
2024/04/17 06:19:52;;;;;;;2.33;1.33;;;154.20;2252.80;;;;;;5496652;26;20313;-70
2024/04/17 06:22:19;;;;;;;2.53;1.30;;;154.30;2252.80;;;;;;5489445;25;20067;-73
2024/04/17 06:24:45;;;;;;;3.40;1.35;;;154.30;2252.80;;;;;;5518235;26;20622;-71
2024/04/17 06:27:11;;;;;;;2.42;1.58;;;154.20;2252.80;;;;;;5518884;26;20011;-70
2024/04/17 06:29:37;;;;;;;2.20;1.55;;;154.00;2252.80;;;;;;5517524;25;20026;-72
2024/04/17 06:32:03;;;;;;;2.42;1.48;;;153.80;2252.80;;;;;;5518369;26;19994;-71
2024/04/17 06:34:48;;;;;;;3.33;1.70;;;153.90;2252.80;;;;;;5518423;25;20008;-71
2024/04/17 06:37:14;;;;;;;3.00;2.20;;;153.80;2252.80;;;;;;5501082;25;20025;-73
2024/04/17 06:39:45;;;;;;;7.55;1.98;;;153.80;2252.80;;;;;;5523289;25;20750;-75
2024/04/17 06:42:11;;;;;;;4.97;2.15;;;153.80;2252.80;;;;;;5523351;25;20008;-78
2024/04/17 06:44:38;;;;;;;48.65;41.47;;;153.60;2252.80;;;;;;5498950;26;20350;-76
2024/04/17 06:47:05;;;;;;;11.45;9.50;;;153.60;2252.80;;;;;;5505302;25;20006;-77
2024/04/17 06:49:31;;;;;;;4.78;3.20;;;128.90;2252.80;;;;;;5513372;26;20007;-79
2024/04/17 06:51:57;;;;;;;5.03;4.35;;;153.80;2252.80;;;;;;5510187;25;20416;-77
2024/04/17 06:54:23;;;;;;;4.45;3.92;;;153.60;2252.80;;;;;;5523791;25;19993;-76
2024/04/17 06:56:49;;;;;;;3.15;1.85;;;153.60;2252.80;;;;;;5525550;26;20339;-75
2024/04/17 06:59:14;;;;;;;2.53;1.63;;;128.80;2252.80;;;;;;5525370;25;20002;-76
2024/04/17 07:01:40;;;;;;;2.22;1.40;;;128.40;2252.80;;;;;;5525317;26;20001;-75
2024/04/17 07:04:06;;;;;;;2.45;1.52;;;128.60;2252.80;;;;;;5528500;26;20117;-80
2024/04/17 07:06:32;;;;;;;7.85;2.22;;;128.70;2252.80;;;;;;5528438;26;19998;-75
2024/04/17 07:08:58;;;;;;;15.40;11.30;;;128.70;2252.80;;;;;;5523813;25;20328;-75
2024/04/17 07:11:24;;;;;;;5.30;3.25;;;128.70;2252.80;;;;;;5529612;25;19997;-76
2024/04/17 07:13:50;;;;;;;4.00;3.50;;;128.70;2252.80;;;;;;5523703;25;20336;-74
2024/04/17 07:16:16;;;;;;;5.60;4.15;;;128.60;2252.80;;;;;;5524805;26;20001;-75
2024/04/17 07:18:41;;;;;;;7.68;5.75;;;128.50;2252.80;;;;;;5513126;26;20001;-74
2024/04/17 07:21:08;;;;;;;7.78;4.93;;;128.60;2252.80;;;;;;5526125;25;19997;-78
2024/04/17 07:23:34;;;;;;;5.80;3.38;;;128.70;2252.80;;;;;;5524848;26;20523;-78
2024/04/17 07:26:00;;;;;;;5.28;3.15;;;128.70;2252.80;;;;;;5524253;25;20496;-74
2024/04/17 07:28:26;;;;;;;9.52;5.35;;;128.80;2252.80;;;;;;5507412;26;20848;-74
2024/04/17 07:30:52;;;;;;;7.03;4.35;;;128.80;2252.80;;;;;;5498392;26;20001;-75
2024/04/17 07:33:18;;;;;;;7.32;4.25;;;128.90;2252.80;;;;;;5519195;25;19998;-75
2024/04/17 07:35:43;;;;;;;10.93;5.60;;;153.60;2252.80;;;;;;5519767;26;20008;-75
2024/04/17 07:38:09;;;;;;;9.48;4.60;;;153.70;2252.80;;;;;;5523341;25;20001;-78
2024/04/17 07:40:35;;;;;;;17.17;8.82;;;154.10;2252.80;;;;;;5517622;26;20011;-76
2024/04/17 07:43:01;;;;;;;9.57;6.25;;;154.40;2252.80;;;;;;5524222;26;19994;-74
2024/04/17 07:45:27;;;;;;;5.78;4.25;;;179.20;2252.80;;;;;;5524125;25;20001;-75
2024/04/17 07:47:53;;;;;;;9.15;5.20;;;154.50;2252.80;;;;;;5520190;26;20001;-74
2024/04/17 07:50:19;;;;;;;4.85;2.65;;;179.20;2252.80;;;;;;5523495;26;20029;-75
2024/04/17 07:52:45;;;;;;;4.00;2.67;;;154.50;2252.80;;;;;;5523634;25;19993;-75
2024/04/17 07:55:10;;;;;;;3.30;2.00;;;154.50;2252.80;;;;;;5528189;26;20001;-75
2024/04/17 07:57:36;;;;;;;3.78;2.10;;;179.40;2252.80;;;;;;5529212;26;20021;-75
2024/04/17 08:00:03;;;;;;;3.60;1.98;;;180.10;2252.80;;;;;;5502166;26;19998;-74
2024/04/17 08:02:29;;;;;;;2.95;1.90;;;179.90;2252.80;;;;;;5510641;25;20002;-75
2024/04/17 08:04:55;;;;;;;2.78;1.60;;;180.10;2252.80;;;;;;5529257;25;20012;-75
2024/04/17 08:07:21;;;;;;;2.72;1.45;;;205.00;2252.80;;;;;;5526946;26;20069;-75
2024/04/17 08:09:46;;;;;;;3.13;1.75;;;205.20;2252.80;;;;;;5512470;26;20009;-73
2024/04/17 08:12:12;;;;;;;14.38;13.07;;;205.50;2252.80;;;;;;5524431;26;19994;-75
2024/04/17 08:14:38;;;;;;;3.35;1.70;;;205.30;2252.80;;;;;;5525039;25;20012;-74
2024/04/17 08:17:04;;;;;;;3.80;2.08;;;205.70;2252.80;;;;;;5527176;25;19998;-78
2024/04/17 08:19:30;;;;;;;4.30;1.48;;;230.60;2252.80;;;;;;5526672;25;20312;-75
2024/04/17 08:21:56;;;;;;;2.75;1.17;;;230.70;2252.80;;;;;;5522648;25;19994;-75
2024/04/17 08:24:22;;;;;;;4.60;1.83;;;230.80;2252.80;;;;;;5522548;25;20012;-74
2024/04/17 08:26:48;;;;;;;4.72;2.30;;;231.00;2252.80;;;;;;5503191;26;20013;-74
2024/04/17 08:29:14;;;;;;;128.63;84.63;;;230.80;2252.80;;;;;;5521403;26;20005;-79
2024/04/17 08:31:41;;;;;;;9.98;6.90;;;205.70;2252.80;;;;;;5527005;25;19997;-74
2024/04/17 08:34:07;;;;;;;4.18;2.85;;;205.70;2252.80;;;;;;5499361;26;20400;-74
2024/04/17 08:36:33;;;;;;;5.30;3.08;;;205.70;2252.80;;;;;;5523586;26;19997;-79
2024/04/17 08:38:59;;;;;;;2.00;1.48;;;230.40;2252.80;;;;;;5502118;26;19998;-78
2024/04/17 08:41:28;;;;;;;5.70;2.30;;;230.40;2252.80;;;;;;5515136;26;19998;-76
2024/04/17 08:43:59;;;;;;;7.68;5.53;;;230.50;2252.80;;;;;;5520960;26;20122;-73
2024/04/17 08:46:27;;;;;;;10.15;9.18;;;230.60;2252.80;;;;;;5528045;25;20012;-78
2024/04/17 08:48:57;;;;;;;18.63;16.90;;;230.90;2252.80;;;;;;5528200;26;20098;-77
2024/04/17 08:51:26;;;;;;;3.53;2.22;;;231.20;2252.80;;;;;;5519149;25;20005;-76
2024/04/17 08:53:57;;;;;;;7.00;4.10;;;231.30;2252.80;;;;;;5510817;26;20024;-77
2024/04/17 08:56:25;;;;;;;6.00;4.50;;;231.30;2252.80;;;;;;5492319;26;20006;-74
2024/04/17 09:01:23;;;;;;;4.68;3.55;;;230.90;2252.80;;;;;;5413873;26;20101;-73
2024/04/17 09:03:49;;;;;;;3.35;1.58;;;230.80;2252.80;;;;;;5408129;26;20365;-73
2024/04/17 09:06:16;;;;;;;3.00;1.70;;;230.70;2252.80;;;;;;5400238;26;20036;-74
2024/04/17 09:08:43;;;;;;;26.45;13.90;;;205.70;2252.80;;;;;;5396537;26;19999;-74
2024/04/17 09:11:10;;;;;;;2.58;1.63;;;205.70;2252.80;;;;;;5406508;26;20014;-80
2024/04/17 09:13:36;;;;;;;6.25;3.58;;;205.60;2252.80;;;;;;5410243;26;19995;-79
2024/04/17 09:16:01;;;;;;;3.90;2.25;;;205.00;2252.80;;;;;;5443442;26;20326;-80
2024/04/17 09:18:28;;;;;;;3.03;1.58;;;205.50;2252.80;;;;;;5404074;26;20024;-77
2024/04/17 09:20:57;;;;;;;11.85;10.85;;;205.70;2252.80;;;;;;5421987;26;20011;-77
2024/04/17 09:23:23;;;;;;;14.85;8.70;;;205.50;2252.80;;;;;;5419062;26;19999;-79
2024/04/17 09:25:49;;;;;;;30.60;20.77;;;205.40;2252.80;;;;;;5429966;26;19992;-77
2024/04/17 09:28:15;;;;;;;4.65;3.00;;;205.60;2252.80;;;;;;5406041;26;20047;-78
2024/04/17 09:30:41;;;;;;;26.05;17.98;;;205.60;2252.80;;;;;;5443365;21;20022;-76
2024/04/17 09:33:11;;;;;;;5.38;3.47;;;205.70;2252.80;;;;;;5419600;26;20009;-76
2024/04/17 09:35:38;;;;;;;4.05;2.70;;;230.50;2252.80;;;;;;5454926;26;20429;-77
2024/04/17 09:38:15;;;;;;;12.43;7.50;;;230.60;2252.80;;;;;;5421973;26;19998;-79
2024/04/17 09:40:47;;;;;;;5.80;2.92;;;230.50;2252.80;;;;;;5451864;26;20016;-76
2024/04/17 09:43:44;;;;;;;4.60;2.83;;;230.80;2252.80;;;;;;5447777;26;19999;-75
2024/04/17 09:46:14;;;;;;;4.75;4.22;;;230.60;2252.80;;;;;;5419258;26;20355;-77
2024/04/17 09:48:41;;;;;;;6.55;4.40;;;230.50;2252.80;;;;;;5460056;21;20002;-77
2024/04/17 09:51:09;;;;;;;3.38;2.00;;;205.70;2252.80;;;;;;5475184;21;20011;-77
2024/04/17 09:53:46;;;;;;;5.20;3.50;;;205.70;2252.80;;;;;;5441758;26;20031;-81
2024/04/17 09:56:14;;;;;;;18.85;14.68;;;205.70;2252.80;;;;;;5451756;26;19991;-77
2024/04/17 09:58:46;;;;;;;5.15;3.13;;;230.40;2252.80;;;;;;5463579;26;20011;-82
2024/04/17 10:01:13;;;;;;;7.10;5.13;;;230.40;2252.80;;;;;;5443536;26;19999;-81
2024/04/17 10:03:43;;;;;;;2.72;1.88;;;230.60;2252.80;;;;;;5409689;26;20000;-80
2024/04/17 10:06:09;;;;;;;10.38;6.63;;;230.60;2252.80;;;;;;5417919;26;20024;-82
2024/04/17 10:08:37;;;;;;;12.40;8.75;;;230.90;2252.80;;;;;;5435959;26;20075;-76
2024/04/17 10:11:04;;;;;;;17.10;13.20;;;231.20;2252.80;;;;;;5410897;26;19996;-80
2024/04/17 10:13:32;;;;;;;1.85;1.48;;;256.10;2252.80;;;;;;5420169;26;19995;-77
2024/04/17 10:15:58;;;;;;;12.27;7.28;;;256.10;2252.80;;;;;;5422575;26;19995;-78
2024/04/17 10:18:24;;;;;;;2.97;1.85;;;231.30;2252.80;;;;;;5408239;26;20055;-84
2024/04/17 10:20:55;;;;;;;6.07;4.45;;;256.20;2252.80;;;;;;5405871;26;20008;-76
2024/04/17 10:23:25;;;;;;;2.58;1.63;;;231.30;2252.80;;;;;;5413701;26;20000;-79
2024/04/17 10:25:57;;;;;;;2.97;1.90;;;256.10;2252.80;;;;;;5379431;26;20015;-81
2024/04/17 10:28:24;;;;;;;22.38;16.05;;;256.30;2252.80;;;;;;5411314;26;20027;-77
2024/04/17 10:30:55;;;;;;;3.15;2.03;;;256.00;2252.80;;;;;;5412137;26;20444;-78
2024/04/17 10:33:29;;;;;;;10.70;7.47;;;256.10;2252.80;;;;;;5407866;26;20010;-81
2024/04/17 10:35:55;;;;;;;32.63;19.95;;;256.00;2252.80;;;;;;5463603;26;19996;-75
2024/04/17 10:38:33;;;;;;;7.60;4.22;;;231.20;2252.80;;;;;;5378331;26;19996;-79
2024/04/17 10:43:34;;;;;;;14.02;9.02;;;231.10;2252.80;;;;;;5431040;26;20342;-80
2024/04/17 10:46:06;;;;;;;9.82;5.28;;;231.10;2252.80;;;;;;5401263;26;20090;-77
2024/04/17 10:48:43;;;;;;;21.58;14.00;;;231.20;2252.80;;;;;;5418969;26;20052;-80
2024/04/17 10:51:09;;;;;;;7.10;4.65;;;231.20;2252.80;;;;;;5403541;26;20460;-75
2024/04/17 10:53:36;;;;;;;4.85;4.10;;;230.90;2252.80;;;;;;5419364;26;20342;-81
2024/04/17 10:56:04;;;;;;;9.93;6.10;;;231.20;2252.80;;;;;;5422169;26;19999;-76
2024/04/17 10:58:33;;;;;;;9.40;6.38;;;231.10;2252.80;;;;;;5418790;26;19999;-73
2024/04/17 11:01:02;;;;;;;7.25;4.43;;;231.20;2252.80;;;;;;5416895;26;19999;-75
2024/04/17 11:03:28;;;;;;;5.18;3.85;;;256.00;2252.80;;;;;;5405495;21;20008;-77
2024/04/17 11:05:54;;;;;;;5.85;4.25;;;231.30;2252.80;;;;;;5346652;26;20029;-75
2024/04/17 11:08:21;;;;;;;7.38;5.75;;;256.10;2252.80;;;;;;5382354;26;20004;-81
2024/04/17 11:10:48;;;;;;;6.63;4.30;;;256.30;2252.80;;;;;;5398443;21;20058;-78
2024/04/17 11:13:17;;;;;;;5.18;4.00;;;256.70;2252.80;;;;;;5400570;26;19996;-75
2024/04/17 11:15:44;;;;;;;16.85;10.27;;;281.60;2278.40;;;;;;5394107;26;20019;-82
2024/04/17 11:18:10;;;;;;;5.18;3.47;;;256.80;2252.80;;;;;;5381061;26;20036;-77
2024/04/17 11:20:38;;;;;;;28.20;17.50;;;256.90;2252.80;;;;;;5403261;26;20622;-75
2024/04/17 11:23:08;;;;;;;8.52;5.88;;;256.90;2252.80;;;;;;5392716;26;20333;-84
2024/04/17 11:25:37;;;;;;;4.82;3.53;;;256.80;2252.80;;;;;;5379956;26;20372;-75
2024/04/17 11:28:03;;;;;;;4.55;3.13;;;281.70;2278.40;;;;;;5382766;26;20008;-79
2024/04/17 11:30:29;;;;;;;4.18;2.92;;;281.70;2278.40;;;;;;5384407;26;20413;-75
2024/04/17 11:32:56;;;;;;;4.38;3.28;;;256.60;2252.80;;;;;;5396407;26;20069;-79
2024/04/17 11:35:22;;;;;;;15.25;12.18;;;256.70;2252.80;;;;;;5416874;26;20051;-80
2024/04/17 11:37:51;;;;;;;8.80;6.13;;;256.50;2252.80;;;;;;5386960;26;20032;-78
2024/04/17 11:40:17;;;;;;;7.85;5.63;;;256.60;2252.80;;;;;;5373244;26;19999;-79
2024/04/17 11:42:43;;;;;;;4.43;3.58;;;256.40;2252.80;;;;;;5395906;26;20018;-80
2024/04/17 11:45:12;;;;;;;7.68;3.78;;;256.60;2252.80;;;;;;5389117;26;20000;-83
2024/04/17 11:47:39;;;;;;;164.60;66.40;;;256.70;2252.80;;;;;;5415670;26;20362;-81
2024/04/17 11:50:06;;;;;;;6.25;4.80;;;256.80;2252.80;;;;;;5395377;26;20077;-80
2024/04/17 11:52:50;;;;;;;8.45;5.43;;;256.60;2252.80;;;;;;5416639;26;19996;-81
2024/04/17 11:55:16;;;;;;;6.03;4.47;;;256.40;2252.80;;;;;;5377079;26;20064;-79
2024/04/17 11:57:42;;;;;;;161.05;58.15;;;256.50;2252.80;;;;;;5384357;26;20004;-82
2024/04/17 12:00:10;;;;;;;14.52;7.63;;;256.40;2252.80;;;;;;5418192;26;20004;-81
2024/04/17 12:02:36;;;;;;;11.43;6.50;;;256.30;2252.80;;;;;;5403285;26;20071;-75
2024/04/17 12:05:02;;;;;;;74.22;33.28;;;256.30;2252.80;;;;;;5398210;26;20004;-75
2024/04/17 12:07:28;;;;;;;21.08;10.82;;;256.10;2252.80;;;;;;5400203;26;20011;-76
2024/04/17 12:09:53;;;;;;;32.40;18.13;;;256.20;2252.80;;;;;;5388858;26;20014;-74
2024/04/17 12:12:21;;;;;;;91.60;49.55;;;256.50;2252.80;;;;;;5395409;26;20007;-75
2024/04/17 12:14:46;;;;;;;10.57;6.90;;;256.40;2252.80;;;;;;5362439;26;20000;-80
2024/04/17 12:17:12;;;;;;;28.10;14.18;;;256.80;2252.80;;;;;;5384961;26;19997;-76